createdAt,value
2023-05-02T00:02:24.359Z,95.39
2023-05-02T00:04:53.124Z,94.23
2023-05-02T00:07:21.236Z,96.52
2023-05-02T00:09:49.913Z,96.79
2023-05-02T00:12:18.348Z,97.49
2023-05-02T00:14:46.260Z,97.49
2023-05-02T00:17:20.925Z,97.32
2023-05-02T00:19:49.341Z,97.24
2023-05-02T00:22:17.282Z,96.14
2023-05-02T00:24:45.426Z,95.24
2023-05-02T00:27:14.629Z,93.42
2023-05-02T00:29:42.602Z,94.53
2023-05-02T00:32:10.516Z,94.96
2023-05-02T00:34:39.029Z,95.20
2023-05-02T00:37:07.909Z,94.88
2023-05-02T00:39:36.241Z,95.79
2023-05-02T00:42:04.725Z,96.45
2023-05-02T00:44:32.965Z,96.00
2023-05-02T00:47:02.369Z,96.56
2023-05-02T00:49:31.537Z,97.01
2023-05-02T00:51:59.630Z,97.28
2023-05-02T00:54:28.090Z,97.72
2023-05-02T00:56:56.478Z,97.39
2023-05-02T00:59:24.965Z,97.34
2023-05-02T01:02:12.118Z,97.37
2023-05-02T01:05:31.074Z,97.30
2023-05-02T01:08:16.284Z,96.37
2023-05-02T01:11:08.581Z,94.97
2023-05-02T01:13:39.495Z,94.38
2023-05-02T01:16:10.375Z,94.24
2023-05-02T01:18:42.393Z,94.44
2023-05-02T01:21:12.303Z,94.39
2023-05-02T01:24:01.966Z,94.23
2023-05-02T01:26:52.695Z,94.12
2023-05-02T01:29:23.688Z,92.27
2023-05-02T01:31:52.773Z,91.37
2023-05-02T01:34:22.911Z,91.74
2023-05-02T01:36:52.665Z,91.27
2023-05-02T01:39:23.146Z,92.88
2023-05-02T01:41:53.956Z,94.20
2023-05-02T01:44:23.980Z,93.63
2023-05-02T01:46:55.416Z,94.55
2023-05-02T01:49:25.904Z,95.20
2023-05-02T01:51:54.495Z,94.48
2023-05-02T01:54:24.682Z,91.96
2023-05-02T01:56:53.301Z,91.98
2023-05-02T01:59:24.356Z,94.77
2023-05-02T02:01:53.596Z,95.99
2023-05-02T02:04:24.356Z,97.18
2023-05-02T02:06:58.456Z,96.99
2023-05-02T02:09:27.533Z,96.69
2023-05-02T02:12:12.973Z,94.53
2023-05-02T02:14:46.793Z,93.39
2023-05-02T02:17:37.912Z,92.21
2023-05-02T02:20:09.128Z,91.11
2023-05-02T02:22:40.476Z,91.54
2023-05-02T02:25:12.281Z,92.53
2023-05-02T02:27:41.814Z,93.21
2023-05-02T02:30:11.087Z,92.41
2023-05-02T02:32:39.157Z,91.45
2023-05-02T02:35:07.938Z,94.40
2023-05-02T02:37:42.460Z,93.58
2023-05-02T02:40:18.708Z,92.14
2023-05-02T02:43:28.573Z,91.22
2023-05-02T02:46:17.875Z,89.26
2023-05-02T02:49:10.618Z,88.50
2023-05-02T02:51:54.584Z,89.91
2023-05-02T02:54:47.621Z,87.40
2023-05-02T02:57:47.811Z,90.31
2023-05-02T03:00:27.844Z,89.49
2023-05-02T03:02:57.198Z,92.03
2023-05-02T03:05:26.430Z,90.35
2023-05-02T03:07:54.434Z,90.34
2023-05-02T03:10:23.862Z,90.65
2023-05-02T03:13:04.724Z,92.43
2023-05-02T03:15:54.261Z,89.74
2023-05-02T03:18:23.563Z,87.40
2023-05-02T03:20:51.854Z,91.38
2023-05-02T03:23:20.252Z,91.73
2023-05-02T03:25:49.500Z,87.37
2023-05-02T03:28:19.646Z,87.31
2023-05-02T03:30:48.395Z,87.58
2023-05-02T03:33:17.071Z,87.72
2023-05-02T03:35:45.575Z,87.90
2023-05-02T03:38:14.096Z,86.20
2023-05-02T03:40:43.630Z,83.31
2023-05-02T03:43:11.844Z,85.12
2023-05-02T03:45:40.356Z,84.54
2023-05-02T03:48:09.046Z,83.61
2023-05-02T03:50:38.163Z,84.71
2023-05-02T03:53:10.481Z,81.90
2023-05-02T03:55:46.233Z,80.89
2023-05-02T03:58:14.713Z,82.75
2023-05-02T04:00:43.640Z,80.53
2023-05-02T04:03:12.384Z,79.87
2023-05-02T04:05:41.074Z,79.56
2023-05-02T04:08:10.861Z,78.56
2023-05-02T04:10:39.544Z,77.32
2023-05-02T04:13:09.351Z,77.42
2023-05-02T04:15:38.215Z,78.05
2023-05-02T04:18:07.234Z,76.58
2023-05-02T04:20:36.603Z,73.53
2023-05-02T04:23:04.459Z,75.51
2023-05-02T04:25:33.311Z,73.88
2023-05-02T04:28:02.064Z,73.30
2023-05-02T04:30:43.259Z,74.55
2023-05-02T04:33:12.380Z,72.12
2023-05-02T04:35:42.049Z,73.75
2023-05-02T04:38:11.357Z,71.15
2023-05-02T04:40:55.038Z,72.16
2023-05-02T04:43:24.860Z,68.74
2023-05-02T04:45:54.015Z,70.98
2023-05-02T04:48:22.998Z,72.29
2023-05-02T04:50:53.941Z,72.46
2023-05-02T04:53:23.774Z,72.65
2023-05-02T04:55:52.564Z,69.45
2023-05-02T04:58:20.985Z,64.36
2023-05-02T05:00:49.697Z,62.55
2023-05-02T05:03:18.201Z,66.42
2023-05-02T05:05:46.403Z,64.50
2023-05-02T05:08:15.164Z,70.03
2023-05-02T05:10:56.510Z,73.45
2023-05-02T05:13:24.965Z,69.44
2023-05-02T05:15:53.849Z,61.62
2023-05-02T05:18:22.722Z,61.90
2023-05-02T05:20:50.734Z,65.37
2023-05-02T05:23:19.228Z,70.93
2023-05-02T05:25:47.534Z,66.50
2023-05-02T05:28:16.675Z,68.04
2023-05-02T05:30:45.926Z,64.27
2023-05-02T05:33:15.394Z,57.28
2023-05-02T05:35:43.928Z,57.96
2023-05-02T05:38:12.562Z,63.08
2023-05-02T05:40:41.433Z,53.16
2023-05-02T05:43:09.851Z,60.58
2023-05-02T05:45:40.393Z,68.49
2023-05-02T05:48:08.526Z,63.67
2023-05-02T05:50:38.188Z,63.66
2023-05-02T05:53:06.885Z,54.84
2023-05-02T05:55:37.376Z,54.11
2023-05-02T05:58:06.592Z,54.54
2023-05-02T06:00:36.745Z,62.24
2023-05-02T06:03:09.633Z,62.98
2023-05-02T06:05:38.465Z,60.44
2023-05-02T06:08:07.010Z,57.42
2023-05-02T06:10:35.245Z,54.37
2023-05-02T06:13:03.754Z,60.33
2023-05-02T06:15:35.448Z,48.44
2023-05-02T06:18:04.621Z,46.31
2023-05-02T06:20:33.326Z,65.00
2023-05-02T06:23:01.416Z,65.51
2023-05-02T06:25:29.593Z,55.74
2023-05-02T06:27:57.815Z,58.54
2023-05-02T06:30:26.022Z,43.51
2023-05-02T06:32:53.995Z,46.32
2023-05-02T06:35:22.489Z,59.14
2023-05-02T06:37:50.399Z,67.41
2023-05-02T06:40:18.710Z,51.63
2023-05-02T06:42:48.357Z,45.07
2023-05-02T06:45:28.671Z,44.69
2023-05-02T06:47:57.074Z,58.09
2023-05-02T06:50:25.053Z,53.05
2023-05-02T06:52:53.035Z,49.58
2023-05-02T06:55:21.702Z,42.99
2023-05-02T06:57:50.967Z,55.21
2023-05-02T07:00:20.035Z,40.85
2023-05-02T07:02:50.153Z,42.23
2023-05-02T07:05:18.234Z,60.37
2023-05-02T07:07:46.622Z,38.41
2023-05-02T07:10:15.147Z,62.88
2023-05-02T07:12:43.244Z,52.18
2023-05-02T07:15:11.575Z,34.50
2023-05-02T07:17:41.373Z,35.98
2023-05-02T07:20:11.144Z,40.50
2023-05-02T07:22:39.551Z,48.85
2023-05-02T07:25:07.827Z,55.71
2023-05-02T07:27:36.143Z,36.37
2023-05-02T07:30:05.005Z,51.20
2023-05-02T07:32:33.210Z,36.65
2023-05-02T07:35:02.198Z,52.83
2023-05-02T07:37:35.802Z,58.71
2023-05-02T07:40:08.271Z,48.48
2023-05-02T07:42:36.895Z,50.13
2023-05-02T07:45:05.443Z,47.83
2023-05-02T07:47:35.285Z,39.87
2023-05-02T07:50:04.893Z,41.12
2023-05-02T07:52:34.229Z,38.38
2023-05-02T07:55:15.540Z,31.62
2023-05-02T07:57:44.186Z,36.06
2023-05-02T08:00:12.760Z,36.17
2023-05-02T08:02:43.238Z,42.66
2023-05-02T08:05:12.098Z,54.58
2023-05-02T08:07:40.219Z,47.07
2023-05-02T08:10:10.147Z,32.50
2023-05-02T08:12:40.526Z,33.67
2023-05-02T08:15:09.772Z,33.16
2023-05-02T08:17:38.394Z,42.98
2023-05-02T08:20:06.934Z,33.46
2023-05-02T08:22:35.383Z,56.69
2023-05-02T08:25:03.632Z,55.10
2023-05-02T08:27:31.998Z,42.47
2023-05-02T08:30:00.913Z,48.74
2023-05-02T08:32:33.762Z,33.78
2023-05-02T08:35:02.948Z,36.55
2023-05-02T08:37:33.781Z,36.94
2023-05-02T08:40:02.487Z,37.91
2023-05-02T08:42:35.924Z,36.96
2023-05-02T08:45:04.928Z,27.92
2023-05-02T08:47:37.409Z,38.93
2023-05-02T08:50:07.099Z,29.08
2023-05-02T08:52:36.660Z,43.08
2023-05-02T08:55:07.487Z,37.35
2023-05-02T08:57:36.270Z,31.18
2023-05-02T09:00:05.115Z,53.85
2023-05-02T09:02:44.135Z,39.52
2023-05-02T09:05:19.957Z,53.82
2023-05-02T09:07:49.736Z,52.83
2023-05-02T09:10:18.396Z,34.72
2023-05-02T09:12:47.813Z,46.47
2023-05-02T09:15:20.750Z,36.36
2023-05-02T09:17:50.411Z,25.98
2023-05-02T09:20:18.545Z,35.80
2023-05-02T09:22:53.622Z,30.14
2023-05-02T09:25:22.087Z,30.19
2023-05-02T09:27:56.227Z,49.49
2023-05-02T09:30:26.568Z,36.12
2023-05-02T09:32:57.729Z,33.73
2023-05-02T09:35:26.461Z,30.62
2023-05-02T09:37:56.397Z,28.68
2023-05-02T09:40:24.846Z,45.79
2023-05-02T09:42:53.566Z,39.11
2023-05-02T09:45:24.619Z,26.45
2023-05-02T09:47:54.179Z,48.05
2023-05-02T09:50:39.170Z,32.63
2023-05-02T09:53:10.034Z,48.99
2023-05-02T09:55:38.602Z,39.43
2023-05-02T09:58:07.016Z,37.19
2023-05-02T10:00:45.696Z,28.86
2023-05-02T10:03:18.074Z,26.56
2023-05-02T10:05:47.610Z,31.87
2023-05-02T10:08:18.986Z,36.95
2023-05-02T10:10:55.564Z,52.45
2023-05-02T10:13:27.819Z,29.50
2023-05-02T10:16:01.066Z,61.14
2023-05-02T10:18:41.280Z,33.29
2023-05-02T10:21:12.076Z,56.14
2023-05-02T10:23:46.912Z,37.98
2023-05-02T10:26:16.504Z,41.17
2023-05-02T10:28:46.231Z,42.35
2023-05-02T10:31:16.555Z,32.03
2023-05-02T10:33:47.402Z,30.73
2023-05-02T10:36:16.289Z,37.82
2023-05-02T10:38:44.730Z,24.66
2023-05-02T10:41:23.575Z,23.78
2023-05-02T10:43:52.477Z,26.54
2023-05-02T10:46:38.463Z,26.62
2023-05-02T10:49:09.137Z,26.62
2023-05-02T10:51:39.853Z,31.38
2023-05-02T10:54:17.754Z,40.81
2023-05-02T10:57:03.480Z,26.80
2023-05-02T10:59:35.248Z,28.83
2023-05-02T11:02:06.227Z,38.55
2023-05-02T11:04:54.418Z,38.67
2023-05-02T11:07:22.435Z,26.67
2023-05-02T11:09:51.016Z,34.97
2023-05-02T11:12:50.568Z,27.89
2023-05-02T11:15:32.974Z,56.12
2023-05-02T11:18:13.733Z,45.49
2023-05-02T11:20:46.121Z,31.13
2023-05-02T11:23:22.314Z,41.67
2023-05-02T11:26:01.363Z,34.95
2023-05-02T11:28:41.413Z,30.61
2023-05-02T11:31:31.118Z,41.59
2023-05-02T11:34:00.810Z,27.19
2023-05-02T11:36:34.024Z,26.47
2023-05-02T11:39:06.269Z,32.30
2023-05-02T11:41:42.007Z,28.50
2023-05-02T11:44:10.711Z,28.51
2023-05-02T11:46:42.456Z,29.04
2023-05-02T11:49:14.851Z,25.74
2023-05-02T11:51:43.788Z,27.76
2023-05-02T11:54:20.374Z,26.82
2023-05-02T11:56:48.998Z,28.48
2023-05-02T11:59:17.208Z,27.91
2023-05-02T12:01:49.807Z,26.43
2023-05-02T12:04:22.715Z,27.08
2023-05-02T12:06:58.115Z,27.88
2023-05-02T12:09:26.716Z,26.80
2023-05-02T12:11:55.249Z,28.11
2023-05-02T12:14:30.425Z,25.96
2023-05-02T12:17:00.205Z,29.17
2023-05-02T12:19:28.528Z,23.73
2023-05-02T12:21:56.549Z,23.44
2023-05-02T12:24:24.961Z,24.59
2023-05-02T12:27:16.492Z,24.84
2023-05-02T12:29:47.060Z,24.21
2023-05-02T12:32:16.151Z,21.89
2023-05-02T12:34:44.395Z,24.22
2023-05-02T12:37:12.759Z,24.63
2023-05-02T12:39:43.241Z,23.24
2023-05-02T12:42:12.928Z,22.20
2023-05-02T12:44:45.995Z,20.36
2023-05-02T12:47:16.124Z,21.27
2023-05-02T12:49:57.501Z,20.94
2023-05-02T12:52:49.350Z,21.59
2023-05-02T12:55:18.434Z,20.34
2023-05-02T12:57:49.076Z,19.86
2023-05-02T13:00:20.037Z,21.31
2023-05-02T13:02:48.389Z,20.29
2023-05-02T13:05:20.961Z,19.45
2023-05-02T13:07:53.213Z,19.91
2023-05-02T13:10:27.647Z,19.91
2023-05-02T13:13:00.058Z,19.68
2023-05-02T13:15:28.406Z,19.04
2023-05-02T13:20:42.863Z,18.61
2023-05-02T13:23:17.191Z,17.50
2023-05-02T13:25:45.154Z,19.52
2023-05-02T13:28:15.830Z,17.87
2023-05-02T13:30:43.848Z,17.72
2023-05-02T13:33:11.906Z,18.23
2023-05-02T13:35:49.891Z,18.17
2023-05-02T13:38:17.912Z,18.71
2023-05-02T13:40:46.680Z,18.46
2023-05-02T13:43:24.036Z,17.41
2023-05-02T13:45:52.946Z,18.62
2023-05-02T13:48:21.183Z,17.11
2023-05-02T13:50:49.289Z,17.41
2023-05-02T13:53:17.732Z,17.24
2023-05-02T13:55:45.833Z,16.79
2023-05-02T13:58:13.992Z,15.88
2023-05-02T14:00:42.561Z,17.82
2023-05-02T14:03:16.887Z,15.94
2023-05-02T14:05:45.000Z,16.65
2023-05-02T14:08:18.612Z,16.50
2023-05-02T14:10:47.206Z,17.86
2023-05-02T14:13:15.628Z,17.76
2023-05-02T14:15:43.548Z,17.08
2023-05-02T14:18:11.702Z,17.32
2023-05-02T14:20:40.288Z,17.81
2023-05-02T14:23:08.315Z,18.96
2023-05-02T14:25:55.037Z,17.57
2023-05-02T14:28:24.038Z,17.82
2023-05-02T14:30:52.539Z,17.13
2023-05-02T14:33:27.786Z,18.17
2023-05-02T14:35:56.736Z,17.78
2023-05-02T14:38:24.964Z,18.48
2023-05-02T14:40:53.202Z,18.17
2023-05-02T14:43:22.454Z,16.51
2023-05-02T14:45:50.834Z,17.98
2023-05-02T14:48:18.904Z,17.14
2023-05-02T14:50:47.308Z,16.78
2023-05-02T14:53:15.391Z,17.16
2023-05-02T14:55:44.347Z,17.34
2023-05-02T14:58:12.813Z,17.30
2023-05-02T15:00:41.019Z,18.33
2023-05-02T15:03:10.273Z,17.90
2023-05-02T15:05:40.608Z,17.54
2023-05-02T15:08:08.751Z,17.92
2023-05-02T15:10:40.643Z,16.77
2023-05-02T15:13:09.240Z,17.42
2023-05-02T15:15:37.780Z,17.88
2023-05-02T15:18:06.219Z,17.65
2023-05-02T15:20:35.067Z,17.77
2023-05-02T15:23:04.173Z,17.92
2023-05-02T15:25:32.798Z,19.29
2023-05-02T15:28:02.897Z,18.79
2023-05-02T15:30:31.148Z,18.36
2023-05-02T15:32:59.299Z,18.51
2023-05-02T15:35:27.827Z,19.05
2023-05-02T15:37:58.258Z,19.07
2023-05-02T15:40:28.077Z,19.85
2023-05-02T15:42:56.603Z,18.41
2023-05-02T15:45:27.232Z,19.00
2023-05-02T15:47:55.348Z,19.55
2023-05-02T15:50:24.551Z,21.00
2023-05-02T15:52:53.647Z,19.51
2023-05-02T15:55:22.103Z,19.30
2023-05-02T15:57:52.445Z,19.43
2023-05-02T16:00:21.669Z,20.20
2023-05-02T16:02:50.772Z,20.27
2023-05-02T16:05:19.220Z,21.37
2023-05-02T16:07:47.513Z,23.02
2023-05-02T16:10:16.034Z,25.55
2023-05-02T16:12:44.042Z,26.91
2023-05-02T16:15:12.083Z,28.97
2023-05-02T16:17:42.340Z,32.16
2023-05-02T16:20:12.948Z,33.62
2023-05-02T16:22:46.873Z,32.36
2023-05-02T16:25:17.034Z,34.76
2023-05-02T16:27:45.565Z,35.62
2023-05-02T16:30:14.097Z,35.78
2023-05-02T16:32:42.282Z,35.43
2023-05-02T16:35:13.539Z,35.42
2023-05-02T16:37:42.347Z,35.13
2023-05-02T16:40:11.586Z,34.68
2023-05-02T16:42:40.483Z,36.64
2023-05-02T16:45:09.024Z,37.24
2023-05-02T16:47:38.023Z,37.82
2023-05-02T16:50:06.943Z,38.15
2023-05-02T16:52:37.415Z,39.73
2023-05-02T16:55:06.824Z,39.92
2023-05-02T16:57:34.779Z,39.42
2023-05-02T17:00:04.508Z,40.41
2023-05-02T17:02:34.610Z,40.74
2023-05-02T17:05:02.631Z,40.44
2023-05-02T17:07:31.618Z,39.52
2023-05-02T17:10:00.304Z,41.29
2023-05-02T17:12:28.700Z,41.36
2023-05-02T17:14:56.837Z,41.33
2023-05-02T17:17:25.968Z,41.35
2023-05-02T17:19:54.132Z,42.14
2023-05-02T17:22:22.394Z,41.92
2023-05-02T17:24:53.327Z,42.96
2023-05-02T17:27:21.460Z,42.97
2023-05-02T17:29:49.482Z,43.34
2023-05-02T17:32:17.955Z,43.23
2023-05-02T17:34:46.175Z,43.43
2023-05-02T17:37:14.368Z,43.04
2023-05-02T17:39:43.127Z,43.44
2023-05-02T17:42:11.044Z,43.85
2023-05-02T17:44:38.922Z,44.06
2023-05-02T17:47:07.275Z,44.05
2023-05-02T17:49:36.004Z,43.86
2023-05-02T17:52:05.545Z,44.34
2023-05-02T17:54:34.489Z,44.55
2023-05-02T17:57:02.415Z,44.66
2023-05-02T17:59:30.322Z,44.94
2023-05-02T18:01:58.804Z,45.19
2023-05-02T18:04:27.156Z,45.09
2023-05-02T18:06:55.903Z,45.42
2023-05-02T18:09:23.771Z,45.85
2023-05-02T18:11:52.631Z,45.75
2023-05-02T18:14:23.846Z,45.70
2023-05-02T18:16:52.285Z,46.00
2023-05-02T18:19:20.374Z,46.38
2023-05-02T18:21:48.266Z,46.30
2023-05-02T18:24:16.597Z,46.30
2023-05-02T18:26:44.680Z,47.00
2023-05-02T18:29:12.699Z,47.19
2023-05-02T18:31:42.496Z,46.60
2023-05-02T18:34:10.656Z,46.27
2023-05-02T18:36:39.541Z,46.63
2023-05-02T18:39:08.596Z,47.27
2023-05-02T18:41:37.085Z,46.76
2023-05-02T18:44:10.938Z,47.17
2023-05-02T18:46:39.442Z,47.10
2023-05-02T18:49:09.602Z,47.21
2023-05-02T18:51:37.671Z,47.83
2023-05-02T18:54:06.368Z,48.05
2023-05-02T18:56:34.518Z,50.15
2023-05-02T18:59:02.580Z,50.75
2023-05-02T19:01:31.013Z,49.17
2023-05-02T19:04:01.586Z,48.90
2023-05-02T19:06:30.772Z,48.55
2023-05-02T19:08:59.906Z,49.44
2023-05-02T19:11:44.573Z,49.10
2023-05-02T19:14:14.042Z,48.93
2023-05-02T19:16:42.238Z,48.94
2023-05-02T19:19:25.675Z,49.78
2023-05-02T19:21:54.460Z,49.20
2023-05-02T19:24:36.230Z,49.64
2023-05-02T19:27:08.485Z,50.03
2023-05-02T19:29:37.309Z,49.62
2023-05-02T19:32:06.132Z,49.63
2023-05-02T19:34:46.525Z,49.83
2023-05-02T19:37:29.358Z,50.21
2023-05-02T19:39:58.492Z,50.18
2023-05-02T19:42:27.519Z,50.04
2023-05-02T19:44:55.496Z,50.13
2023-05-02T19:47:23.596Z,50.56
2023-05-02T19:49:52.111Z,50.65
2023-05-02T19:52:20.363Z,50.68
2023-05-02T19:54:51.656Z,50.70
2023-05-02T19:57:20.300Z,50.77
2023-05-02T19:59:48.486Z,51.23
2023-05-02T20:02:16.553Z,51.32
2023-05-02T20:04:46.512Z,51.56
2023-05-02T20:07:14.668Z,51.97
2023-05-02T20:09:42.626Z,52.19
2023-05-02T20:12:10.965Z,51.99
2023-05-02T20:14:41.198Z,52.14
2023-05-02T20:17:09.424Z,52.38
2023-05-02T20:19:38.181Z,52.32
2023-05-02T20:22:06.399Z,53.08
2023-05-02T20:24:34.410Z,53.07
2023-05-02T20:27:03.089Z,52.91
2023-05-02T20:29:31.106Z,52.97
2023-05-02T20:31:59.689Z,53.45
2023-05-02T20:34:28.046Z,52.65
2023-05-02T20:36:56.216Z,52.95
2023-05-02T20:39:25.861Z,53.72
2023-05-02T20:42:06.860Z,53.62
2023-05-02T20:44:35.102Z,53.31
2023-05-02T20:47:06.824Z,53.89
2023-05-02T20:49:35.156Z,53.79
2023-05-02T20:52:06.726Z,53.51
2023-05-02T20:54:35.140Z,53.76
2023-05-02T20:57:04.120Z,53.47
2023-05-02T20:59:32.463Z,52.88
2023-05-02T21:02:00.506Z,53.16
2023-05-02T21:04:29.170Z,53.47
2023-05-02T21:06:57.344Z,53.58
2023-05-02T21:09:25.328Z,53.63
2023-05-02T21:11:53.813Z,53.92
2023-05-02T21:14:24.924Z,54.12
2023-05-02T21:16:53.878Z,54.19
2023-05-02T21:19:22.097Z,54.24
2023-05-02T21:21:50.298Z,53.92
2023-05-02T21:24:18.728Z,54.55
2023-05-02T21:26:46.823Z,54.10
2023-05-02T21:29:15.332Z,55.12
2023-05-02T21:31:43.748Z,54.90
2023-05-02T21:34:11.767Z,54.79
2023-05-02T21:36:39.727Z,54.56
2023-05-02T21:39:08.141Z,54.37
2023-05-02T21:41:35.984Z,54.31
2023-05-02T21:44:03.964Z,55.23
2023-05-02T21:46:32.361Z,55.51
2023-05-02T21:49:00.302Z,54.75
2023-05-02T21:51:28.284Z,54.49
2023-05-02T21:53:56.568Z,54.72
2023-05-02T21:56:24.420Z,55.06
2023-05-02T21:58:52.380Z,55.14
2023-05-02T22:01:21.032Z,54.86
2023-05-02T22:03:49.358Z,55.40
2023-05-02T22:06:17.657Z,56.13
2023-05-02T22:08:45.656Z,56.50
2023-05-02T22:11:15.637Z,56.06
2023-05-02T22:13:43.682Z,56.02
2023-05-02T22:16:11.727Z,56.15
2023-05-02T22:18:40.108Z,58.20
2023-05-02T22:21:08.552Z,55.97
2023-05-02T22:23:36.462Z,56.29
2023-05-02T22:26:05.053Z,56.05
2023-05-02T22:28:33.103Z,56.65
2023-05-02T22:31:01.162Z,56.68
2023-05-02T22:33:29.778Z,56.88
2023-05-02T22:35:58.403Z,56.95
2023-05-02T22:38:26.411Z,56.43
2023-05-02T22:40:54.824Z,57.09
2023-05-02T22:43:22.901Z,56.79
2023-05-02T22:45:51.632Z,57.05
2023-05-02T22:48:20.134Z,56.67
2023-05-02T22:50:49.156Z,56.87
2023-05-02T22:53:17.264Z,57.17
2023-05-02T22:55:45.597Z,59.85
2023-05-02T22:58:13.643Z,57.47
2023-05-02T23:00:41.815Z,57.13
2023-05-02T23:03:11.308Z,57.24
2023-05-02T23:05:39.456Z,57.01
2023-05-02T23:08:07.357Z,57.29
2023-05-02T23:10:35.692Z,57.13
2023-05-02T23:13:03.520Z,57.42
2023-05-02T23:15:31.532Z,57.08
2023-05-02T23:18:00.015Z,57.04
2023-05-02T23:20:28.071Z,57.10
2023-05-02T23:22:56.685Z,57.82
2023-05-02T23:25:27.631Z,57.52
2023-05-02T23:27:55.754Z,58.01
2023-05-02T23:30:23.665Z,57.83
2023-05-02T23:32:52.186Z,58.17
2023-05-02T23:35:20.612Z,57.64
2023-05-02T23:37:49.524Z,58.87
2023-05-02T23:40:17.920Z,58.80
2023-05-02T23:42:46.519Z,58.34
2023-05-02T23:45:14.610Z,58.68
2023-05-02T23:47:43.057Z,57.98
2023-05-02T23:50:11.381Z,58.18
2023-05-02T23:52:39.545Z,58.46
2023-05-02T23:55:10.964Z,58.66
2023-05-02T23:57:39.224Z,59.26
